Time;durP1;ratioP1;P1;durP2;ratioP2;P2;SDS_P1;SDS_P2;PMS_P1;PMS_P2;Temp;Humidity;BMP_temperature;BMP_pressure;BME280_temperature;BME280_humidity;BME280_pressure;Samples;Min_cycle;Max_cycle;Signal;HPM_P1;HPM_P2
2021/05/21 00:02:15;;;;;;;3.80;1.07;;;16.70;73.60;;;;;;4974437;28;20719;-80
2021/05/21 00:04:41;;;;;;;1.20;0.60;;;16.60;74.00;;;;;;4957472;28;20203;-80
2021/05/21 00:07:07;;;;;;;1.00;0.40;;;16.70;74.00;;;;;;4956846;28;20176;-79
2021/05/21 00:09:33;;;;;;;1.20;0.50;;;16.70;74.00;;;;;;4956217;28;20278;-79
2021/05/21 00:11:58;;;;;;;2.10;0.53;;;16.70;74.00;;;;;;4977203;28;20192;-79
2021/05/21 00:14:24;;;;;;;1.40;0.50;;;16.70;74.00;;;;;;4957360;28;20265;-79
2021/05/21 00:16:50;;;;;;;1.50;0.60;;;16.70;74.00;;;;;;4956317;28;20532;-79
2021/05/21 00:19:16;;;;;;;1.80;0.57;;;16.60;74.10;;;;;;4940790;28;20184;-78
2021/05/21 00:21:42;;;;;;;1.43;0.50;;;16.60;74.10;;;;;;4988518;23;21208;-77
2021/05/21 00:24:08;;;;;;;2.90;1.17;;;16.60;74.20;;;;;;4981064;28;20179;-77
2021/05/21 00:26:34;;;;;;;1.20;0.50;;;16.60;74.00;;;;;;4991018;28;20170;-77
2021/05/21 00:28:59;;;;;;;1.20;0.70;;;16.60;73.90;;;;;;4975317;28;20573;-77
2021/05/21 00:31:25;;;;;;;1.13;0.60;;;16.60;74.20;;;;;;4959305;28;20542;-77
2021/05/21 00:33:51;;;;;;;1.67;0.53;;;16.60;74.20;;;;;;4975167;28;20174;-76
2021/05/21 00:36:17;;;;;;;1.93;0.50;;;16.60;74.30;;;;;;4992375;28;20175;-76
2021/05/21 00:38:42;;;;;;;1.93;0.50;;;16.50;74.40;;;;;;4975219;28;20166;-76
2021/05/21 00:41:09;;;;;;;1.30;0.50;;;16.50;74.40;;;;;;4975063;28;20198;-76
2021/05/21 00:43:35;;;;;;;1.70;0.60;;;16.50;74.40;;;;;;4992375;28;20602;-76
2021/05/21 00:46:01;;;;;;;1.00;0.40;;;16.50;75.00;;;;;;4992350;28;20619;-77
2021/05/21 00:48:27;;;;;;;1.40;0.50;;;16.50;74.90;;;;;;4958784;28;21129;-77
2021/05/21 00:50:53;;;;;;;1.00;0.40;;;16.50;75.00;;;;;;4992195;28;20590;-77
2021/05/21 00:53:21;;;;;;;1.67;0.50;;;16.50;74.90;;;;;;4992489;28;20606;-76
2021/05/21 00:55:47;;;;;;;3.27;0.50;;;16.50;75.50;;;;;;4994825;28;20718;-77
2021/05/21 00:58:13;;;;;;;1.87;0.50;;;16.50;75.30;;;;;;4958327;28;21046;-76
2021/05/21 01:00:39;;;;;;;1.63;0.50;;;16.40;75.60;;;;;;4992074;28;20614;-76
2021/05/21 01:03:05;;;;;;;1.30;0.60;;;16.40;75.70;;;;;;4992256;28;20613;-77
2021/05/21 01:05:31;;;;;;;1.10;0.50;;;16.40;76.90;;;;;;4974871;28;20566;-77
2021/05/21 01:07:57;;;;;;;1.97;0.50;;;16.40;75.90;;;;;;4974586;28;20174;-77
2021/05/21 01:10:22;;;;;;;1.10;0.40;;;16.30;76.00;;;;;;4992180;28;20194;-77
2021/05/21 01:12:48;;;;;;;1.10;0.50;;;16.40;76.00;;;;;;4992273;28;20629;-77
2021/05/21 01:15:15;;;;;;;2.07;0.60;;;16.30;76.70;;;;;;4958571;28;20643;-77
2021/05/21 01:17:41;;;;;;;1.50;0.57;;;16.30;76.30;;;;;;4974397;28;20266;-78
2021/05/21 01:20:12;;;;;;;2.07;0.60;;;16.30;76.40;;;;;;4974534;28;20733;-77
2021/05/21 01:22:38;;;;;;;2.00;0.60;;;16.30;77.20;;;;;;4994438;28;20194;-77
2021/05/21 01:25:06;;;;;;;1.50;0.60;;;16.30;76.70;;;;;;4995947;28;20570;-77
2021/05/21 01:27:32;;;;;;;1.57;0.90;;;16.30;76.70;;;;;;4961973;28;20629;-78
2021/05/21 01:29:57;;;;;;;3.30;0.70;;;16.30;77.00;;;;;;4995979;28;20625;-78
2021/05/21 01:32:23;;;;;;;2.90;0.70;;;16.30;77.20;;;;;;4981483;28;20618;-78
2021/05/21 01:34:49;;;;;;;1.47;0.80;;;16.30;77.10;;;;;;4996065;28;20171;-77
2021/05/21 01:37:24;;;;;;;1.20;0.60;;;16.30;77.20;;;;;;4977936;28;20193;-77
2021/05/21 01:39:52;;;;;;;1.10;0.50;;;16.30;77.60;;;;;;4978363;28;20175;-77
2021/05/21 01:42:18;;;;;;;1.53;0.60;;;16.30;77.40;;;;;;4995622;28;20594;-78
2021/05/21 01:44:44;;;;;;;2.50;0.60;;;16.30;77.60;;;;;;4978323;28;20573;-78
2021/05/21 01:47:11;;;;;;;1.33;0.60;;;16.30;77.60;;;;;;4995322;28;20926;-77
2021/05/21 01:49:37;;;;;;;1.50;0.70;;;16.20;77.90;;;;;;4978321;28;20577;-77
2021/05/21 01:52:03;;;;;;;1.30;0.67;;;16.20;77.90;;;;;;4995470;28;20945;-77
2021/05/21 01:54:29;;;;;;;2.30;0.60;;;16.20;78.10;;;;;;4978195;28;20176;-77
2021/05/21 01:57:00;;;;;;;1.20;0.50;;;16.20;78.60;;;;;;4994951;28;20578;-77
2021/05/21 01:59:26;;;;;;;1.40;0.60;;;16.10;79.50;;;;;;4978030;28;20617;-77
2021/05/21 02:01:53;;;;;;;1.43;0.60;;;16.10;79.00;;;;;;4977818;28;21052;-77
2021/05/21 02:04:37;;;;;;;3.33;0.60;;;16.10;79.10;;;;;;4978153;28;20566;-77
2021/05/21 02:07:04;;;;;;;1.33;0.60;;;16.00;79.40;;;;;;4977663;28;20573;-77
2021/05/21 02:09:41;;;;;;;1.73;0.50;;;16.10;80.20;;;;;;4980901;28;21164;-77
2021/05/21 02:12:07;;;;;;;1.30;0.50;;;16.00;80.20;;;;;;4977748;28;20613;-77
2021/05/21 02:14:33;;;;;;;2.20;0.50;;;16.00;80.10;;;;;;4995226;28;21049;-77
2021/05/21 02:16:58;;;;;;;3.10;0.70;;;16.00;80.20;;;;;;4961293;28;20685;-77
2021/05/21 02:19:24;;;;;;;1.10;0.60;;;16.00;80.50;;;;;;4995087;28;20179;-77
2021/05/21 02:21:50;;;;;;;1.97;0.50;;;16.00;80.40;;;;;;4977282;28;20211;-77
2021/05/21 02:24:16;;;;;;;1.13;0.40;;;16.00;81.00;;;;;;4977610;28;20574;-77
2021/05/21 02:26:42;;;;;;;1.77;0.60;;;16.00;80.80;;;;;;4994555;28;20589;-77
2021/05/21 02:29:09;;;;;;;2.30;0.80;;;16.00;80.90;;;;;;4995410;28;20226;-78
2021/05/21 02:31:35;;;;;;;2.17;0.68;;;16.00;81.30;;;;;;4994944;28;20185;-78
2021/05/21 02:34:01;;;;;;;2.27;0.50;;;16.00;81.40;;;;;;4977203;28;20175;-78
2021/05/21 02:36:26;;;;;;;1.83;0.50;;;16.00;81.50;;;;;;4994477;28;20570;-78
2021/05/21 02:38:52;;;;;;;3.10;0.50;;;16.00;81.50;;;;;;4977199;28;20193;-77
2021/05/21 02:41:18;;;;;;;1.30;0.50;;;16.00;81.70;;;;;;4977167;28;20203;-78
2021/05/21 02:43:44;;;;;;;1.43;0.53;;;16.00;81.70;;;;;;4972017;28;20196;-77
2021/05/21 02:46:09;;;;;;;1.20;0.50;;;16.00;82.00;;;;;;4969203;28;20586;-77
2021/05/21 02:48:35;;;;;;;2.30;0.57;;;16.00;82.10;;;;;;4985909;28;20171;-77
2021/05/21 02:51:01;;;;;;;2.30;0.57;;;16.00;83.00;;;;;;4984177;28;20522;-77
2021/05/21 02:53:27;;;;;;;1.30;0.50;;;16.00;82.50;;;;;;4992122;28;20206;-77
2021/05/21 02:55:52;;;;;;;1.10;0.50;;;15.90;82.60;;;;;;4994310;28;20182;-77
2021/05/21 02:58:19;;;;;;;2.70;0.50;;;15.90;82.80;;;;;;4976487;28;20179;-77
2021/05/21 03:00:45;;;;;;;1.10;0.60;;;15.90;82.80;;;;;;4994251;28;20202;-77
2021/05/21 03:03:11;;;;;;;1.37;0.83;;;15.90;82.90;;;;;;4994231;28;20621;-77
2021/05/21 03:05:37;;;;;;;1.90;0.50;;;15.90;83.30;;;;;;4976877;28;20566;-77
2021/05/21 03:08:03;;;;;;;1.37;0.60;;;15.90;83.30;;;;;;4976381;28;20194;-77
2021/05/21 03:10:29;;;;;;;2.70;1.07;;;15.80;84.30;;;;;;4994224;28;20768;-77
2021/05/21 03:12:55;;;;;;;2.43;0.60;;;15.80;83.50;;;;;;4976800;28;20603;-77
2021/05/21 03:15:22;;;;;;;1.57;0.60;;;15.70;83.40;;;;;;4994052;28;20175;-77
2021/05/21 03:17:48;;;;;;;1.30;0.50;;;15.70;83.60;;;;;;4960296;28;21155;-77
2021/05/21 03:20:14;;;;;;;1.37;0.60;;;15.60;84.50;;;;;;4993881;28;20634;-77
2021/05/21 03:22:41;;;;;;;1.48;0.60;;;15.60;84.80;;;;;;4978122;28;20199;-77
2021/05/21 03:25:08;;;;;;;1.58;0.60;;;15.60;83.90;;;;;;4994288;28;20178;-76
2021/05/21 03:27:34;;;;;;;2.38;0.50;;;15.50;84.30;;;;;;4993361;28;20163;-77
2021/05/21 03:30:01;;;;;;;1.25;0.50;;;15.50;84.40;;;;;;4993853;28;20167;-77
2021/05/21 03:32:27;;;;;;;2.75;0.60;;;15.40;84.40;;;;;;4993557;28;20249;-77
2021/05/21 03:34:53;;;;;;;2.78;0.60;;;15.40;84.60;;;;;;4993720;28;20294;-77
2021/05/21 03:37:19;;;;;;;1.40;0.57;;;15.40;85.00;;;;;;4993283;28;20175;-76
2021/05/21 03:39:45;;;;;;;1.73;0.60;;;15.30;84.90;;;;;;4993585;28;20922;-77
2021/05/21 03:42:11;;;;;;;3.93;0.70;;;15.30;85.00;;;;;;4993309;28;20598;-77
2021/05/21 03:44:37;;;;;;;1.80;0.60;;;15.30;85.50;;;;;;4975300;28;20257;-77
2021/05/21 03:47:03;;;;;;;3.50;1.57;;;15.30;85.50;;;;;;4993111;28;20255;-77
2021/05/21 03:49:29;;;;;;;2.05;0.65;;;15.20;85.60;;;;;;4993297;28;20598;-76
2021/05/21 03:51:56;;;;;;;1.55;0.70;;;15.20;85.90;;;;;;4993767;28;20191;-77
2021/05/21 03:54:22;;;;;;;1.90;0.60;;;15.20;86.70;;;;;;4993632;28;20183;-77
2021/05/21 03:56:49;;;;;;;1.88;1.35;;;15.20;86.70;;;;;;4993417;28;20171;-77
2021/05/21 03:59:14;;;;;;;2.03;0.70;;;15.10;86.60;;;;;;4978909;28;20170;-77
2021/05/21 04:01:40;;;;;;;1.43;0.70;;;15.10;86.80;;;;;;4995457;28;20559;-77
2021/05/21 04:04:06;;;;;;;2.13;0.70;;;15.10;87.10;;;;;;4999786;28;20178;-76
2021/05/21 04:06:32;;;;;;;1.40;0.80;;;15.10;87.50;;;;;;4998003;28;20585;-76
2021/05/21 04:09:06;;;;;;;1.73;0.70;;;15.10;87.70;;;;;;4998476;28;20175;-77
2021/05/21 04:11:36;;;;;;;1.13;0.60;;;15.00;87.70;;;;;;4983627;28;20573;-77
2021/05/21 04:14:04;;;;;;;1.98;0.60;;;15.00;88.10;;;;;;5002196;28;20198;-77
2021/05/21 04:16:30;;;;;;;1.70;0.60;;;15.00;88.20;;;;;;4999248;28;20606;-76
2021/05/21 04:18:56;;;;;;;2.67;0.70;;;15.00;88.70;;;;;;4977083;28;20175;-76
2021/05/21 04:21:22;;;;;;;1.97;0.70;;;15.00;88.70;;;;;;4969016;28;20662;-77
2021/05/21 04:23:48;;;;;;;2.93;0.70;;;15.00;89.00;;;;;;4973554;28;20201;-77
2021/05/21 04:26:15;;;;;;;2.40;0.80;;;15.00;89.20;;;;;;4973769;28;20166;-77
2021/05/21 04:28:41;;;;;;;2.22;0.75;;;15.00;90.00;;;;;;4973688;28;20598;-77
2021/05/21 04:31:07;;;;;;;3.35;1.00;;;15.00;89.70;;;;;;4956892;28;20182;-76
2021/05/21 04:33:34;;;;;;;3.17;1.20;;;15.00;89.80;;;;;;4973267;28;20630;-77
2021/05/21 04:35:59;;;;;;;2.72;0.80;;;15.00;90.10;;;;;;4955857;28;20259;-77
2021/05/21 04:38:25;;;;;;;1.80;0.90;;;15.00;90.10;;;;;;4977372;28;20210;-77
2021/05/21 04:40:51;;;;;;;1.65;0.85;;;15.00;90.50;;;;;;4955717;28;20202;-77
2021/05/21 04:43:23;;;;;;;6.87;1.13;;;15.00;90.80;;;;;;4972904;28;20184;-77
2021/05/21 04:45:48;;;;;;;2.28;0.80;;;15.00;91.00;;;;;;4972824;28;20168;-78
2021/05/21 04:48:14;;;;;;;4.80;0.90;;;15.10;90.90;;;;;;4939068;28;20172;-77
2021/05/21 04:50:40;;;;;;;2.00;0.90;;;15.20;91.30;;;;;;4972614;28;20183;-77
2021/05/21 04:53:06;;;;;;;2.70;0.77;;;15.50;92.10;;;;;;4972579;28;20611;-77
2021/05/21 04:55:31;;;;;;;1.57;0.67;;;16.00;92.80;;;;;;4972873;28;20645;-78
2021/05/21 04:57:57;;;;;;;1.97;0.80;;;16.60;93.10;;;;;;4955285;28;20179;-78
2021/05/21 05:00:23;;;;;;;3.00;0.90;;;16.90;92.70;;;;;;4955519;28;20210;-78
2021/05/21 05:02:49;;;;;;;3.93;0.60;;;17.20;92.10;;;;;;4955796;28;20183;-78
2021/05/21 05:05:14;;;;;;;2.07;0.70;;;17.30;91.60;;;;;;4973547;28;20163;-79
2021/05/21 05:07:40;;;;;;;3.70;0.80;;;17.30;91.30;;;;;;4972804;28;20166;-79
2021/05/21 05:10:06;;;;;;;2.20;0.60;;;17.40;90.90;;;;;;4973518;28;20207;-79
2021/05/21 05:12:32;;;;;;;2.93;0.90;;;17.30;90.50;;;;;;4955931;28;20198;-79
2021/05/21 05:14:58;;;;;;;1.63;0.80;;;17.30;90.40;;;;;;4980977;28;20568;-80
2021/05/21 05:17:23;;;;;;;1.57;0.90;;;17.20;90.20;;;;;;4956292;28;20587;-80
2021/05/21 05:19:49;;;;;;;3.63;0.73;;;17.10;90.10;;;;;;4972869;28;20229;-80
2021/05/21 05:22:15;;;;;;;1.30;0.70;;;17.10;90.20;;;;;;4973686;28;20206;-80
2021/05/21 05:24:41;;;;;;;1.70;0.70;;;17.10;90.40;;;;;;4972973;28;20214;-77
2021/05/21 05:27:06;;;;;;;1.73;0.60;;;17.10;90.60;;;;;;4972376;28;20193;-77
2021/05/21 05:29:34;;;;;;;2.87;0.70;;;17.30;91.00;;;;;;4972830;28;20675;-77
2021/05/21 05:32:03;;;;;;;3.27;1.03;;;17.70;91.30;;;;;;4955551;28;20203;-77
2021/05/21 05:34:29;;;;;;;2.50;0.60;;;17.90;91.20;;;;;;4955687;28;20586;-76
2021/05/21 05:36:55;;;;;;;3.47;0.80;;;18.00;90.90;;;;;;4972242;28;20658;-77
2021/05/21 05:39:21;;;;;;;1.90;0.70;;;18.20;90.80;;;;;;4955129;28;20657;-77
2021/05/21 05:41:49;;;;;;;1.17;0.50;;;18.30;90.60;;;;;;4955231;28;20255;-78
2021/05/21 05:44:20;;;;;;;2.27;0.87;;;18.40;90.50;;;;;;4972606;28;20559;-78
2021/05/21 05:46:46;;;;;;;1.10;0.50;;;18.40;90.20;;;;;;4972182;28;20567;-79
2021/05/21 05:49:12;;;;;;;2.80;0.80;;;18.50;90.20;;;;;;4939397;28;20694;-77
2021/05/21 05:51:38;;;;;;;1.97;0.60;;;18.50;90.00;;;;;;4955279;28;20579;-77
2021/05/21 05:54:04;;;;;;;2.53;0.50;;;18.40;89.70;;;;;;4972525;28;20568;-77
2021/05/21 05:56:30;;;;;;;1.10;0.50;;;18.40;89.50;;;;;;4954668;28;20675;-76
2021/05/21 05:58:55;;;;;;;1.93;0.60;;;18.40;89.50;;;;;;4972428;28;20563;-76
2021/05/21 06:01:21;;;;;;;1.70;0.70;;;18.40;89.50;;;;;;4972232;28;20638;-76
2021/05/21 06:03:47;;;;;;;1.20;0.40;;;18.50;89.60;;;;;;4972512;28;20187;-76
2021/05/21 06:06:13;;;;;;;1.40;0.53;;;18.40;89.30;;;;;;4972239;28;20263;-77
2021/05/21 06:08:38;;;;;;;2.53;0.60;;;18.50;89.70;;;;;;4956838;28;20542;-77
2021/05/21 06:11:04;;;;;;;1.00;0.50;;;18.50;89.30;;;;;;4975882;28;20222;-76
2021/05/21 06:13:30;;;;;;;1.40;0.60;;;18.50;89.30;;;;;;4975668;28;20266;-76
2021/05/21 06:15:56;;;;;;;1.43;0.60;;;18.40;89.20;;;;;;4958444;28;20306;-76
2021/05/21 06:18:22;;;;;;;1.40;0.60;;;18.40;89.10;;;;;;4957868;28;20207;-77
2021/05/21 06:20:48;;;;;;;3.20;0.57;;;18.50;89.20;;;;;;4975575;28;20618;-76
2021/05/21 06:23:17;;;;;;;2.17;0.60;;;18.50;89.20;;;;;;4958834;28;21014;-75
2021/05/21 06:28:21;;;;;;;1.50;0.60;;;18.70;89.20;;;;;;4974973;28;20199;-75
2021/05/21 06:30:51;;;;;;;1.83;0.60;;;18.90;89.10;;;;;;4958412;28;20586;-76
2021/05/21 06:33:17;;;;;;;1.83;0.50;;;19.20;90.20;;;;;;4975003;28;20595;-77
2021/05/21 06:35:46;;;;;;;1.93;0.60;;;19.60;90.40;;;;;;4975167;28;20582;-77
2021/05/21 06:38:12;;;;;;;2.30;0.60;;;19.90;90.10;;;;;;4974983;28;20571;-76
2021/05/21 06:40:38;;;;;;;1.10;0.60;;;20.20;89.20;;;;;;4974769;28;21065;-77
2021/05/21 06:43:12;;;;;;;1.37;0.53;;;20.30;88.20;;;;;;4957761;28;20603;-76
2021/05/21 06:45:39;;;;;;;1.43;0.57;;;20.60;88.50;;;;;;4974619;28;20182;-76
2021/05/21 06:48:05;;;;;;;2.60;0.67;;;21.00;88.50;;;;;;4974521;28;20573;-77
2021/05/21 06:50:31;;;;;;;1.50;0.70;;;21.20;87.30;;;;;;4975172;28;20597;-77
2021/05/21 06:52:57;;;;;;;1.50;0.63;;;21.50;86.20;;;;;;4989906;28;20611;-77
2021/05/21 06:55:23;;;;;;;1.70;0.70;;;21.70;86.00;;;;;;4974773;28;20700;-77
2021/05/21 06:57:49;;;;;;;1.63;0.53;;;22.10;85.60;;;;;;4957252;28;20583;-77
2021/05/21 07:00:16;;;;;;;2.70;0.60;;;22.40;84.90;;;;;;4974566;28;20689;-77
2021/05/21 07:02:42;;;;;;;1.83;0.67;;;22.60;83.40;;;;;;4974812;28;20226;-77
2021/05/21 07:05:09;;;;;;;1.57;0.57;;;22.60;81.40;;;;;;4975308;28;20563;-77
2021/05/21 07:07:34;;;;;;;2.07;0.60;;;22.70;81.10;;;;;;4974486;28;20603;-77
2021/05/21 07:10:00;;;;;;;2.43;0.60;;;22.70;80.00;;;;;;4957702;28;20613;-77
2021/05/21 07:12:30;;;;;;;1.97;0.60;;;22.80;80.30;;;;;;4957530;28;20188;-77
2021/05/21 07:14:55;;;;;;;2.00;0.70;;;22.80;77.80;;;;;;4957481;28;20656;-77
2021/05/21 07:17:22;;;;;;;2.60;0.70;;;22.80;77.40;;;;;;4974162;28;20575;-77
2021/05/21 07:19:48;;;;;;;2.23;0.70;;;22.80;76.90;;;;;;4973850;28;20992;-81
2021/05/21 07:22:13;;;;;;;2.53;0.80;;;22.70;75.90;;;;;;4974871;28;20367;-81
2021/05/21 07:24:39;;;;;;;3.80;1.37;;;22.60;74.50;;;;;;4957949;28;20219;-81
2021/05/21 07:27:05;;;;;;;2.90;0.80;;;22.40;73.90;;;;;;4974386;28;20179;-81
2021/05/21 07:29:31;;;;;;;2.23;0.60;;;22.30;74.10;;;;;;4974802;28;20629;-81
2021/05/21 07:32:00;;;;;;;2.07;0.60;;;22.70;76.70;;;;;;4957793;28;20706;-81
2021/05/21 07:34:26;;;;;;;1.80;0.70;;;23.60;79.70;;;;;;4957828;28;20172;-81
2021/05/21 07:36:53;;;;;;;1.63;0.67;;;24.40;78.90;;;;;;4974854;28;20622;-81
2021/05/21 07:39:20;;;;;;;4.70;0.70;;;25.00;77.40;;;;;;4975731;28;20948;-81
2021/05/21 07:41:46;;;;;;;3.20;0.90;;;25.20;74.50;;;;;;4977862;28;20738;-81
2021/05/21 07:44:11;;;;;;;5.03;0.90;;;25.20;71.20;;;;;;4966782;28;20646;-81
2021/05/21 07:46:37;;;;;;;3.10;0.80;;;25.00;69.30;;;;;;4975896;28;20622;-81
2021/05/21 07:49:04;;;;;;;13.70;1.27;;;25.00;68.00;;;;;;4964978;28;20265;-81
2021/05/21 07:51:31;;;;;;;1.93;0.70;;;25.30;69.00;;;;;;4957099;28;20591;-81
2021/05/21 07:53:57;;;;;;;2.03;0.70;;;25.90;69.00;;;;;;4956541;28;20953;-81
2021/05/21 07:56:23;;;;;;;3.40;0.60;;;26.40;69.00;;;;;;4964063;28;20607;-82
2021/05/21 07:58:48;;;;;;;1.40;0.53;;;26.60;67.70;;;;;;4951430;28;20178;-82
2021/05/21 08:01:14;;;;;;;2.13;0.60;;;26.80;66.50;;;;;;4993246;28;20217;-80
2021/05/21 08:03:40;;;;;;;2.67;0.70;;;27.10;65.60;;;;;;4993252;28;20191;-80
2021/05/21 08:06:06;;;;;;;4.10;0.70;;;27.10;63.80;;;;;;4975649;28;20175;-80
2021/05/21 08:08:32;;;;;;;2.10;0.60;;;26.90;61.50;;;;;;4993092;28;20270;-80
2021/05/21 08:11:01;;;;;;;2.30;0.67;;;26.50;59.90;;;;;;4975775;28;20210;-80
2021/05/21 08:13:28;;;;;;;1.60;0.60;;;26.20;59.60;;;;;;4993275;28;20612;-80
2021/05/21 08:15:54;;;;;;;1.87;0.63;;;26.10;59.60;;;;;;4975853;28;20566;-81
2021/05/21 08:18:20;;;;;;;4.00;0.70;;;26.10;59.80;;;;;;4976356;28;20573;-80
2021/05/21 08:20:47;;;;;;;3.93;0.80;;;26.20;59.60;;;;;;4995783;28;20621;-80
2021/05/21 08:23:14;;;;;;;8.60;0.90;;;26.30;59.20;;;;;;4975475;28;20921;-80
2021/05/21 08:25:41;;;;;;;5.53;1.17;;;26.70;59.60;;;;;;4992924;28;20613;-82
2021/05/21 08:28:06;;;;;;;4.60;0.90;;;26.80;57.90;;;;;;4975506;28;20999;-81
2021/05/21 08:30:32;;;;;;;2.30;0.90;;;27.10;58.50;;;;;;4975770;28;20665;-81
2021/05/21 08:32:58;;;;;;;7.03;1.00;;;27.70;58.50;;;;;;4975813;28;20194;-80
2021/05/21 08:35:25;;;;;;;5.93;1.20;;;28.30;57.90;;;;;;4993359;28;20910;-81
2021/05/21 08:37:51;;;;;;;5.90;0.80;;;28.70;56.60;;;;;;4992930;28;20171;-81
2021/05/21 08:40:36;;;;;;;3.43;1.00;;;29.00;56.30;;;;;;4993438;28;20621;-80
2021/05/21 08:43:08;;;;;;;2.43;0.70;;;29.20;55.20;;;;;;4993272;28;21089;-81
2021/05/21 08:45:34;;;;;;;5.67;1.37;;;29.30;53.10;;;;;;4993351;28;20731;-81
2021/05/21 08:48:01;;;;;;;2.73;1.13;;;29.30;53.10;;;;;;4993360;28;20628;-81
2021/05/21 08:50:28;;;;;;;3.73;1.50;;;29.30;52.10;;;;;;4960947;28;20589;-80
2021/05/21 08:52:53;;;;;;;6.43;0.77;;;29.40;52.50;;;;;;4978321;28;20606;-80
2021/05/21 08:55:19;;;;;;;2.40;1.00;;;29.80;52.80;;;;;;5001157;28;20578;-79
2021/05/21 08:57:45;;;;;;;3.20;0.83;;;30.30;52.40;;;;;;5008180;28;20194;-80
2021/05/21 09:00:12;;;;;;;4.93;1.10;;;30.80;52.40;;;;;;5008727;28;20628;-80
2021/05/21 09:02:39;;;;;;;2.50;0.63;;;31.40;51.50;;;;;;4983413;28;20954;-80
2021/05/21 09:05:11;;;;;;;3.43;1.00;;;31.90;50.90;;;;;;5004749;28;20940;-80
2021/05/21 09:07:41;;;;;;;2.63;0.73;;;32.40;50.20;;;;;;4987291;28;20596;-81
2021/05/21 09:10:13;;;;;;;5.23;0.80;;;33.00;49.90;;;;;;5003079;28;20900;-80
2021/05/21 09:12:40;;;;;;;4.37;0.90;;;33.70;49.00;;;;;;4998071;28;21101;-80
2021/05/21 09:15:23;;;;;;;2.80;1.00;;;33.90;47.40;;;;;;4993734;28;20578;-78
2021/05/21 09:18:00;;;;;;;2.53;0.97;;;34.10;43.10;;;;;;4976196;28;20607;-79
2021/05/21 09:20:33;;;;;;;5.53;0.80;;;34.20;43.80;;;;;;4994000;28;20612;-78
2021/05/21 09:23:17;;;;;;;3.60;0.90;;;34.20;43.40;;;;;;4993141;28;20628;-78
2021/05/21 09:25:53;;;;;;;2.53;0.80;;;34.40;43.50;;;;;;4993585;28;20618;-79
2021/05/21 09:28:36;;;;;;;5.87;0.93;;;34.20;42.50;;;;;;4993134;28;20572;-78
2021/05/21 09:31:20;;;;;;;1.90;0.70;;;34.30;42.40;;;;;;4992552;28;20774;-79
2021/05/21 09:33:49;;;;;;;3.00;0.70;;;34.40;41.90;;;;;;4980785;28;20620;-79
2021/05/21 09:36:29;;;;;;;3.40;0.83;;;34.00;40.60;;;;;;4992175;28;20640;-78
2021/05/21 09:38:56;;;;;;;2.47;0.80;;;33.70;40.30;;;;;;4959490;28;21141;-79
2021/05/21 09:41:25;;;;;;;3.33;0.90;;;33.70;41.20;;;;;;4976574;28;20726;-78
2021/05/21 09:43:55;;;;;;;3.13;0.70;;;33.80;40.80;;;;;;4995638;28;20571;-78
2021/05/21 09:46:21;;;;;;;2.73;0.77;;;33.80;39.70;;;;;;4978626;28;20631;-78
2021/05/21 09:48:48;;;;;;;3.00;0.90;;;33.90;39.60;;;;;;4995442;28;20562;-79
2021/05/21 09:51:15;;;;;;;2.43;0.83;;;33.90;39.30;;;;;;4996275;28;20922;-79
2021/05/21 09:53:46;;;;;;;3.00;1.00;;;34.10;39.50;;;;;;4978170;28;20622;-80
2021/05/21 09:56:20;;;;;;;2.50;1.10;;;34.10;38.40;;;;;;4978424;28;20590;-81
2021/05/21 09:58:47;;;;;;;2.63;0.70;;;33.80;36.90;;;;;;4977874;28;20683;-80
2021/05/21 10:01:20;;;;;;;2.73;0.90;;;33.40;37.10;;;;;;4962158;28;20629;-80
2021/05/21 10:03:48;;;;;;;2.43;0.80;;;33.00;36.90;;;;;;4995360;28;21142;-79
2021/05/21 10:06:15;;;;;;;2.83;1.00;;;32.70;37.20;;;;;;4995594;28;20587;-80
2021/05/21 10:08:43;;;;;;;3.87;0.80;;;32.40;36.70;;;;;;4995371;28;20738;-79
2021/05/21 10:11:09;;;;;;;2.80;0.90;;;32.00;36.60;;;;;;4982089;28;20589;-79
2021/05/21 10:13:44;;;;;;;6.53;0.90;;;31.50;36.70;;;;;;4977650;28;20610;-79
2021/05/21 10:16:14;;;;;;;4.07;1.50;;;31.30;37.20;;;;;;4995309;28;21158;-79
2021/05/21 10:18:48;;;;;;;5.63;1.20;;;31.50;38.20;;;;;;4994833;28;20676;-79
2021/05/21 10:21:15;;;;;;;2.73;1.93;;;31.80;38.40;;;;;;4961364;28;21221;-79
2021/05/21 10:23:47;;;;;;;4.70;1.40;;;32.00;38.50;;;;;;4994671;28;20621;-79
2021/05/21 10:26:17;;;;;;;5.40;1.53;;;32.10;37.60;;;;;;4977442;28;20583;-79
2021/05/21 10:28:46;;;;;;;4.30;1.30;;;31.80;36.90;;;;;;4994869;28;21249;-79
2021/05/21 10:31:14;;;;;;;3.30;0.90;;;31.40;36.80;;;;;;4995104;28;20555;-79
2021/05/21 10:33:43;;;;;;;2.23;0.90;;;31.20;37.20;;;;;;4994767;28;21138;-79
2021/05/21 10:36:29;;;;;;;4.37;1.30;;;31.10;37.20;;;;;;4994533;28;20975;-79
2021/05/21 10:39:13;;;;;;;2.63;1.20;;;31.30;37.60;;;;;;4994964;28;20573;-80
2021/05/21 10:41:59;;;;;;;4.83;1.40;;;31.40;37.80;;;;;;4994628;28;20660;-80
2021/05/21 10:44:38;;;;;;;2.90;1.13;;;31.60;37.50;;;;;;4960985;28;20573;-80
2021/05/21 10:47:16;;;;;;;4.60;1.30;;;31.70;38.10;;;;;;4980590;28;20566;-80
2021/05/21 10:49:48;;;;;;;4.03;1.40;;;31.80;36.10;;;;;;4977260;28;20930;-80
2021/05/21 10:52:14;;;;;;;3.43;0.80;;;31.70;36.50;;;;;;4994586;28;20971;-80
2021/05/21 10:54:46;;;;;;;4.77;1.07;;;31.50;36.70;;;;;;4994356;28;20567;-80
2021/05/21 10:57:26;;;;;;;3.60;1.00;;;31.40;36.70;;;;;;4976632;28;20637;-80
2021/05/21 10:59:52;;;;;;;4.17;1.20;;;31.40;35.90;;;;;;4994272;28;20574;-80
2021/05/21 11:02:21;;;;;;;3.83;0.90;;;31.30;36.50;;;;;;4977179;28;20688;-80
2021/05/21 11:04:47;;;;;;;4.10;1.10;;;31.10;36.20;;;;;;4977137;28;20573;-79
2021/05/21 11:07:30;;;;;;;3.20;1.10;;;30.90;35.70;;;;;;4994631;28;21117;-80
2021/05/21 11:09:57;;;;;;;4.10;1.20;;;30.60;35.40;;;;;;4961212;28;20167;-79
2021/05/21 11:12:23;;;;;;;3.70;1.30;;;30.50;36.10;;;;;;4994348;28;20649;-79
2021/05/21 11:14:50;;;;;;;2.83;1.10;;;30.40;35.60;;;;;;4977442;28;20562;-80
2021/05/21 11:17:24;;;;;;;2.20;0.90;;;30.20;35.30;;;;;;4994169;28;20566;-79
2021/05/21 11:19:53;;;;;;;5.97;1.20;;;30.00;35.40;;;;;;4994249;28;20661;-80
2021/05/21 11:22:38;;;;;;;3.73;1.20;;;29.90;35.90;;;;;;4960400;28;20707;-79
2021/05/21 11:25:14;;;;;;;2.53;0.80;;;29.60;35.40;;;;;;4980466;28;21021;-79
2021/05/21 11:27:40;;;;;;;3.93;0.90;;;29.30;35.30;;;;;;4993648;28;20624;-80
2021/05/21 11:30:14;;;;;;;3.53;1.10;;;29.00;35.40;;;;;;4993307;28;20632;-80
2021/05/21 11:32:41;;;;;;;4.33;0.90;;;28.70;35.80;;;;;;4994015;28;20184;-79
2021/05/21 11:35:08;;;;;;;2.50;1.00;;;28.70;36.50;;;;;;4976551;28;20570;-80
2021/05/21 11:37:34;;;;;;;3.30;0.93;;;28.80;36.90;;;;;;4976020;28;20638;-80
2021/05/21 11:40:05;;;;;;;4.70;0.80;;;29.00;37.20;;;;;;4993609;28;20578;-80
2021/05/21 11:42:35;;;;;;;3.03;0.90;;;29.10;37.00;;;;;;4993899;28;20598;-80
2021/05/21 11:45:01;;;;;;;3.80;1.00;;;29.20;36.60;;;;;;4993486;28;20574;-80
2021/05/21 11:47:30;;;;;;;2.93;0.83;;;29.20;36.60;;;;;;4996698;28;20571;-80
2021/05/21 11:49:58;;;;;;;2.60;0.80;;;29.30;36.70;;;;;;4975931;28;20606;-80
2021/05/21 11:52:24;;;;;;;1.77;0.67;;;29.30;36.20;;;;;;4993379;28;20959;-79
2021/05/21 11:54:50;;;;;;;5.03;0.80;;;29.20;35.90;;;;;;4993947;28;20574;-79
2021/05/21 11:57:23;;;;;;;3.70;1.40;;;29.00;36.00;;;;;;4992854;28;20167;-79
2021/05/21 11:59:49;;;;;;;3.63;1.57;;;28.60;35.10;;;;;;4976062;28;20574;-79
2021/05/21 12:02:16;;;;;;;3.70;0.80;;;28.20;35.50;;;;;;4979335;28;20637;-80
2021/05/21 12:04:46;;;;;;;3.23;1.30;;;27.80;35.40;;;;;;4992942;28;20571;-79
2021/05/21 12:07:20;;;;;;;2.10;0.70;;;27.70;36.40;;;;;;4992583;28;20577;-80
2021/05/21 12:10:05;;;;;;;2.97;0.90;;;27.60;36.60;;;;;;4992984;28;20569;-79
2021/05/21 12:12:34;;;;;;;2.70;0.93;;;27.50;37.20;;;;;;4959499;28;21216;-80
2021/05/21 12:15:05;;;;;;;2.43;0.90;;;27.50;37.50;;;;;;4992777;28;20609;-81
2021/05/21 12:17:43;;;;;;;2.90;0.90;;;27.40;36.70;;;;;;4992805;28;21007;-80
2021/05/21 12:20:10;;;;;;;2.83;1.00;;;27.30;36.30;;;;;;4992935;28;20871;-81
2021/05/21 12:22:36;;;;;;;3.37;0.80;;;27.10;36.20;;;;;;4993936;28;20605;-81
2021/05/21 12:25:22;;;;;;;2.90;0.90;;;27.00;36.40;;;;;;4959429;28;20942;-80
2021/05/21 12:27:48;;;;;;;2.60;1.30;;;26.80;36.40;;;;;;4992079;28;20195;-80
2021/05/21 12:30:15;;;;;;;3.17;0.90;;;26.70;36.60;;;;;;4997858;28;20661;-80
2021/05/21 12:32:40;;;;;;;4.53;1.10;;;26.60;36.10;;;;;;4992851;28;20604;-81
2021/05/21 12:35:08;;;;;;;3.40;0.80;;;26.50;36.70;;;;;;4992727;28;20567;-81
2021/05/21 12:37:33;;;;;;;2.37;0.70;;;26.40;37.30;;;;;;4994663;28;20167;-81
2021/05/21 12:40:01;;;;;;;3.47;0.90;;;26.40;37.30;;;;;;4977630;28;20567;-81
2021/05/21 12:42:27;;;;;;;1.60;0.77;;;26.30;37.30;;;;;;4992679;28;20655;-81
2021/05/21 12:44:53;;;;;;;2.93;0.80;;;26.20;37.00;;;;;;4992407;28;20601;-80
2021/05/21 12:47:21;;;;;;;4.80;1.73;;;26.10;36.80;;;;;;4991793;28;20589;-80
2021/05/21 12:49:48;;;;;;;4.97;2.60;;;25.90;36.60;;;;;;4975427;28;20590;-82
2021/05/21 12:52:14;;;;;;;4.23;1.77;;;25.70;36.60;;;;;;4992916;28;20606;-81
2021/05/21 12:54:45;;;;;;;2.83;1.17;;;25.50;36.60;;;;;;4993288;28;20581;-81